Glover, Mississippi
Current Conditions -  °F | °C
As of 11:29 AM on Sunday 23 Nov 2014 (Local Time) from KMEM Reporting Station
Light Rain Light Rain  
Wind Chill: 61°   Ceiling: 1300
Heat Index: 61°   Visibility: 2mi
Dew Point: 57°   Wind: 12mph
Humidity: 88%   Direction: 120°ESE
Pressure: 29.52"   Gusts: NA
Location:  34.9578°N, 90.1057°W
Report Text: KMEM 231729Z 12010KT 2SM -RA BR SCT008 BKN013 OVC050 16/14 A2952 RMK AO2 SFC VIS 4 PRESFR P0005 $
Loading
Personal Weather Stations






























Interactive Weather Map New forecast layout! Learn more

10-Day Weather Forecast

Advertisements
Track Severe Weather on mobile